Terminal Aerodrome Forecast
Issued by NWS

Home | Current Version | Previous Version | Text Only | Print | Product List | Glossary On
Versions: 1 2 3 4 5 6 7 8 9 10 11 12
000
FTUS44 KJAN 242320
TAFGTR
TAF
KGTR 242320Z 2500/2524 15015KT P6SM SCT040 BKN070
     FM250900 16013G24KT P6SM BKN025 BKN250
     FM251200 16013G25KT P6SM VCTS BKN025CB BKN250
     FM251600 17016G28KT 6SM TSRA BKN025CB OVC050
     FM252200 17014G25KT P6SM VCTS BKN025CB OVC090=

USA.gov is the U.S. government's official web portal to all federal, state and local government web resources and services.